Time;durP1;ratioP1;P1;durP2;ratioP2;P2;SDS_P1;SDS_P2;PMS_P1;PMS_P2;Temp;Humidity;BMP_temperature;BMP_pressure;BME280_temperature;BME280_humidity;BME280_pressure;Samples;Min_cycle;Max_cycle;Signal;HPM_P1;HPM_P2
2022/02/24 04:04:23;;;;;;;12.00;5.75;;;77.50;2227.20;;;;;;4886529;29;20034;-81
2022/02/24 04:07:52;;;;;;;10.45;4.88;;;77.50;2227.20;;;;;;4782135;29;20036;-80
2022/02/24 04:11:14;;;;;;;11.48;5.75;;;77.60;2227.20;;;;;;4754971;30;20040;-80
2022/02/24 04:35:48;;;;;;;13.98;5.43;;;77.30;2227.20;;;;;;5321474;23;20051;-79
2022/02/24 04:39:05;;;;;;;22.08;9.15;;;102.40;2227.20;;;;;;4944675;28;20016;-79
2022/02/24 04:42:07;;;;;;;11.98;5.20;;;77.20;2227.20;;;;;;4881062;29;20084;-80
2022/02/24 04:45:11;;;;;;;11.52;5.55;;;77.10;2227.20;;;;;;4864495;29;20038;-79
2022/02/24 04:48:41;;;;;;;14.20;6.13;;;77.10;2227.20;;;;;;4851058;29;20068;-78
2022/02/24 04:52:12;;;;;;;12.35;5.60;;;77.10;2227.20;;;;;;4741577;30;20035;-79
2022/02/24 05:09:18;;;;;;;21.55;9.40;;;77.00;2227.20;;;;;;4737236;30;20102;-79
2022/02/24 05:19:26;;;;;;;32.78;8.88;;;77.00;2227.20;;;;;;4976869;28;20033;-79
2022/02/24 05:22:47;;;;;;;22.42;8.38;;;77.10;2227.20;;;;;;4893744;29;20052;-78
2022/02/24 05:26:02;;;;;;;26.77;9.68;;;77.10;2227.20;;;;;;4899151;29;20021;-78
2022/02/24 05:50:25;;;;;;;16.45;6.38;;;102.80;2227.20;;;;;;5548320;23;20064;-79
2022/02/24 05:53:35;;;;;;;19.23;6.70;;;77.40;2227.20;;;;;;4883986;29;20045;-78
2022/02/24 05:56:32;;;;;;;23.83;7.15;;;77.50;2227.20;;;;;;4855589;29;20017;-78
2022/02/24 05:59:20;;;;;;;18.58;6.68;;;77.60;2227.20;;;;;;4872925;29;20066;-78
2022/02/24 06:01:46;;;;;;;21.98;7.10;;;77.60;2227.20;;;;;;4808975;29;20039;-74
2022/02/24 06:04:12;;;;;;;23.60;8.90;;;77.70;2227.20;;;;;;4805521;29;20410;-78
2022/02/24 06:06:42;;;;;;;18.45;7.65;;;102.40;2227.20;;;;;;4809106;29;20047;-72
2022/02/24 06:09:11;;;;;;;;;;;102.50;2227.20;;;;;;4828049;29;20082;-72
2022/02/24 06:11:37;;;;;;;23.65;9.50;;;102.60;2227.20;;;;;;4815059;29;19958;-72
2022/02/24 06:14:03;;;;;;;16.88;7.57;;;102.60;2227.20;;;;;;4826522;29;20043;-76
2022/02/24 06:16:57;;;;;;;16.42;8.32;;;102.70;2227.20;;;;;;4819758;29;20042;-72
2022/02/24 06:19:29;;;;;;;22.80;11.85;;;102.80;2227.20;;;;;;4834349;29;20091;-71
2022/02/24 06:21:55;;;;;;;20.20;11.43;;;102.90;2227.20;;;;;;4809290;29;20031;-70
2022/02/24 06:24:22;;;;;;;24.80;14.15;;;103.00;2227.20;;;;;;4808839;29;20042;-72
2022/02/24 06:26:47;;;;;;;32.22;19.23;;;103.20;2227.20;;;;;;4805410;29;20123;-74
2022/02/24 06:29:13;;;;;;;40.67;23.63;;;128.00;2252.80;;;;;;4812163;29;20027;-70
2022/02/24 06:31:40;;;;;;;46.05;24.38;;;128.30;2252.80;;;;;;4860964;29;20040;-69
2022/02/24 06:34:06;;;;;;;55.40;25.77;;;128.60;2252.80;;;;;;4860959;29;20488;-70
2022/02/24 06:36:31;;;;;;;42.63;22.75;;;153.70;2252.80;;;;;;4856293;29;20033;-72
2022/02/24 06:38:58;;;;;;;39.35;21.10;;;;;;;;;;4859490;29;20029;-71
2022/02/24 06:41:27;;;;;;;48.08;21.02;;;;;;;;;;4858919;29;20042;-71
2022/02/24 06:43:53;;;;;;;57.25;22.27;;;;;;;;;;4860636;29;20080;-72
2022/02/24 06:46:19;;;;;;;35.15;15.57;;;;;;;;;;4858789;29;20422;-72
2022/02/24 06:48:46;;;;;;;47.17;19.95;;;;;;;;;;4859728;29;20041;-75
2022/02/24 06:51:15;;;;;;;38.00;19.90;;;;;;;;;;4875718;29;20036;-76
2022/02/24 06:53:41;;;;;;;39.03;17.13;;;;;;;;;;4920836;29;20040;-72
2022/02/24 06:56:16;;;;;;;34.65;17.63;;;;;;;;;;4912028;29;20028;-78
2022/02/24 06:58:42;;;;;;;49.08;20.10;;;;;;;;;;4915054;29;20021;-74
2022/02/24 07:01:08;;;;;;;62.80;28.98;;;;;;;;;;4911332;29;20027;-77
2022/02/24 07:03:34;;;;;;;66.70;34.10;;;;;;;;;;4920775;29;20024;-84
2022/02/24 07:06:01;;;;;;;83.20;41.95;;;;;;;;;;4915596;29;20132;-76
2022/02/24 07:08:27;;;;;;;80.60;43.55;;;;;;;;;;4916542;29;20025;-86
2022/02/24 07:10:53;;;;;;;99.75;49.75;;;;;;;;;;4915909;29;20043;-72
2022/02/24 07:13:19;;;;;;;59.70;31.83;;;;;;;;;;4915508;29;20029;-72
2022/02/24 07:15:45;;;;;;;62.40;29.65;;;;;;;;;;4912702;29;20115;-71
2022/02/24 07:18:11;;;;;;;33.15;19.25;;;;;;;;;;4897439;29;20032;-71
2022/02/24 07:20:37;;;;;;;24.05;14.18;;;;;;;;;;4915721;29;20028;-73
2022/02/24 07:23:03;;;;;;;20.38;12.13;;;;;;;;;;4916066;29;20035;-70
2022/02/24 07:25:29;;;;;;;20.58;9.20;;;;;;;;;;4898666;29;20170;-76
2022/02/24 07:27:56;;;;;;;28.60;10.63;;;;;;;;;;4916100;29;20031;-75
2022/02/24 07:30:22;;;;;;;20.15;9.90;;;;;;;;;;4899380;29;20482;-75
2022/02/24 07:32:50;;;;;;;17.95;7.82;;;;;;;;;;4898645;29;20401;-77
2022/02/24 07:35:16;;;;;;;20.70;8.00;;;;;;;;;;4915511;29;20043;-80
2022/02/24 07:37:42;;;;;;;15.18;6.20;;;;;;;;;;4899216;29;20032;-77
2022/02/24 07:40:10;;;;;;;18.35;6.70;;;;;;;;;;4915149;29;20025;-74
2022/02/24 07:42:36;;;;;;;24.65;8.25;;;;;;;;;;4898416;29;20471;-74
2022/02/24 07:45:07;;;;;;;24.92;8.23;;;;;;;;;;4914858;29;20500;-83
2022/02/24 07:47:34;;;;;;;25.50;11.40;;;;;;;;;;4896996;29;20521;-81
2022/02/24 07:50:00;;;;;;;23.02;9.45;;;;;;;;;;4914906;29;20775;-85
2022/02/24 07:52:27;;;;;;;18.35;6.28;;;;;;;;;;4904960;29;20060;-83
2022/02/24 07:54:54;;;;;;;15.00;6.72;;;;;;;;;;4915272;29;20036;-75
2022/02/24 07:57:21;;;;;;;14.43;6.65;;;;;;;;;;4915709;29;20030;-75
2022/02/24 07:59:47;;;;;;;16.08;7.78;;;;;;;;;;4915078;29;20028;-77
2022/02/24 08:02:13;;;;;;;13.23;7.57;;;;;;;;;;4901174;29;20032;-75
2022/02/24 08:04:39;;;;;;;12.63;6.80;;;;;;;;;;4915141;29;20029;-73
2022/02/24 08:07:05;;;;;;;12.15;6.70;;;;;;;;;;4915662;29;20040;-78
2022/02/24 08:09:31;;;;;;;14.70;6.25;;;;;;;;;;4912781;29;20394;-74
2022/02/24 08:14:42;;;;;;;11.20;6.13;;;;;;;;;;4914630;29;20043;-74
2022/02/24 08:17:08;;;;;;;11.80;5.68;;;;;;;;;;4913992;29;20508;-76
2022/02/24 08:19:35;;;;;;;14.10;6.68;;;;;;;;;;4913428;29;20043;-80
2022/02/24 08:22:03;;;;;;;17.13;6.75;;;;;;;;;;4906818;29;20028;-81
2022/02/24 08:24:31;;;;;;;13.48;6.20;;;;;;;;;;4893557;29;20521;-78
2022/02/24 08:26:57;;;;;;;12.30;5.95;;;;;;;;;;4898923;29;20040;-79
2022/02/24 08:29:23;;;;;;;15.75;5.85;;;;;;;;;;4898366;29;20032;-82
2022/02/24 08:31:50;;;;;;;10.73;6.15;;;;;;;;;;4914831;29;20028;-79
2022/02/24 08:34:17;;;;;;;14.07;5.65;;;;;;;;;;4905170;29;20024;-80
2022/02/24 08:36:43;;;;;;;14.55;6.05;;;;;;;;;;4916106;29;20562;-83
2022/02/24 08:39:09;;;;;;;17.55;5.88;;;;;;;;;;4913970;29;20088;-77
2022/02/24 08:41:40;;;;;;;12.65;6.07;;;;;;;;;;4915684;29;20024;-77
2022/02/24 08:44:06;;;;;;;12.75;6.18;;;;;;;;;;4907375;29;20447;-73
2022/02/24 08:46:32;;;;;;;12.63;5.32;;;;;;;;;;4915585;29;20040;-75
2022/02/24 08:48:58;;;;;;;14.65;6.55;;;;;;;;;;4897816;29;20088;-84
2022/02/24 08:51:24;;;;;;;12.55;6.20;;;;;;;;;;4899705;29;20099;-88
2022/02/24 08:53:51;;;;;;;13.57;6.15;;;;;;;;;;4901888;29;20494;-81
2022/02/24 08:56:17;;;;;;;14.57;6.25;;;;;;;;;;4894698;29;20111;-76
2022/02/24 08:58:43;;;;;;;11.45;5.75;;;;;;;;;;4904433;29;20072;-76
2022/02/24 09:01:09;;;;;;;13.18;5.65;;;;;;;;;;4913198;29;20488;-75
2022/02/24 09:03:35;;;;;;;12.85;5.63;;;;;;;;;;4912959;29;20040;-75
2022/02/24 09:06:01;;;;;;;17.27;6.25;;;;;;;;;;4918409;29;20028;-75
2022/02/24 09:08:52;;;;;;;10.68;5.40;;;;;;;;;;4921682;29;20063;-77
2022/02/24 09:12:06;;;;;;;11.68;4.97;;;;;;;;;;4929646;29;20034;-80
2022/02/24 09:17:49;;;;;;;11.02;5.13;;;;;;;;;;4933965;29;20788;-76
2022/02/24 09:20:16;;;;;;;10.52;5.00;;;;;;;;;;4931462;29;20406;-77
2022/02/24 09:22:45;;;;;;;9.82;4.70;;;;;;;;;;4933420;29;20036;-77
2022/02/24 09:25:27;;;;;;;12.20;4.70;;;;;;;;;;4930341;29;20039;-76
2022/02/24 09:27:56;;;;;;;11.70;3.80;;;;;;;;;;4913473;29;20046;-74
2022/02/24 09:30:22;;;;;;;8.98;3.65;;;;;;;;;;4903993;29;20066;-74
2022/02/24 09:32:50;;;;;;;7.55;3.70;;;;;;;;;;4903617;29;20027;-75
2022/02/24 09:35:17;;;;;;;10.18;3.50;;;;;;;;;;4901725;29;20040;-77
2022/02/24 09:37:50;;;;;;;12.48;4.93;;;;;;;;;;4926963;29;20028;-79
2022/02/24 09:40:41;;;;;;;10.85;3.92;;;;;;;;;;4929612;29;20055;-76
2022/02/24 09:43:16;;;;;;;8.27;3.90;;;;;;;;;;4927830;29;20032;-76
2022/02/24 09:45:43;;;;;;;7.75;3.20;;;;;;;;;;4930959;29;20040;-76
2022/02/24 09:48:13;;;;;;;9.15;3.30;;;;;;;;;;4924210;29;20518;-76
2022/02/24 09:50:39;;;;;;;11.88;3.88;;;;;;;;;;4921025;29;20078;-75
2022/02/24 09:53:06;;;;;;;9.15;2.90;;;;;;;;;;4916435;29;20135;-76
2022/02/24 09:55:32;;;;;;;9.00;3.10;;;;;;;;;;4922911;29;20032;-74
2022/02/24 09:57:58;;;;;;;6.63;2.88;;;;;;;;;;4922546;29;20510;-76
2022/02/24 10:00:24;;;;;;;8.23;3.00;;;;;;;;;;4906777;29;20096;-76
2022/02/24 10:02:53;;;;;;;8.75;3.20;;;;;;;;;;4919632;29;20084;-76
2022/02/24 10:05:44;;;;;;;6.53;2.95;;;;;;;;;;4933550;29;20016;-79
2022/02/24 10:08:34;;;;;;;7.57;2.78;;;;;;;;;;4931689;29;20075;-79
2022/02/24 10:11:27;;;;;;;8.95;2.90;;;;;;;;;;4877083;29;20065;-74
2022/02/24 10:14:06;;;;;;;7.40;2.58;;;;;;;;;;4864620;29;20496;-70
2022/02/24 10:16:51;;;;;;;6.53;3.42;;;;;;;;;;4874295;29;20036;-72
2022/02/24 10:19:17;;;;;;;7.40;3.10;;;;;;;;;;4878212;29;20037;-75
2022/02/24 10:21:46;;;;;;;10.80;3.33;;;;;;;;;;4873885;29;20527;-75
2022/02/24 10:24:25;;;;;;;7.28;2.92;;;;;;;;;;4866436;29;20063;-75
2022/02/24 10:26:54;;;;;;;6.53;3.20;;;;;;;;;;4863938;29;20170;-75
2022/02/24 10:29:23;;;;;;;8.80;3.53;;;;;;;;;;4877648;29;20029;-75
2022/02/24 10:31:49;;;;;;;7.82;3.30;;;;;;;;;;4874747;29;20051;-74
2022/02/24 10:34:41;;;;;;;8.30;3.90;;;;;;;;;;4873685;29;20029;-76
2022/02/24 10:37:11;;;;;;;13.35;4.30;;;;;;;;;;4888904;29;20029;-77
2022/02/24 10:39:39;;;;;;;11.55;3.67;;;;;;;;;;4886680;29;20112;-76
2022/02/24 10:42:24;;;;;;;11.07;4.65;;;;;;;;;;4906520;29;20036;-76
2022/02/24 10:45:08;;;;;;;8.07;3.63;;;;;;;;;;4902493;29;20052;-74
2022/02/24 10:47:34;;;;;;;5.97;3.65;;;;;;;;;;4921209;29;20059;-75
2022/02/24 10:50:04;;;;;;;11.15;3.88;;;;;;;;;;4924524;29;20040;-75
2022/02/24 10:52:32;;;;;;;12.48;5.35;;;;;;;;;;4911464;29;20063;-75
2022/02/24 10:55:07;;;;;;;11.20;4.40;;;;;;;;;;4929473;29;20028;-75
2022/02/24 10:57:33;;;;;;;11.80;4.68;;;;;;;;;;4912103;29;20100;-76
2022/02/24 11:00:00;;;;;;;14.65;4.40;;;;;;;;;;4913051;29;20059;-74
2022/02/24 11:02:27;;;;;;;17.20;4.47;;;;;;;;;;4913651;29;20017;-75
2022/02/24 11:04:53;;;;;;;13.57;5.10;;;;;;;;;;4925243;29;20167;-76
2022/02/24 11:07:21;;;;;;;12.00;5.45;;;;;;;;;;4908892;29;20379;-77
2022/02/24 11:09:48;;;;;;;13.10;3.88;;;;;;;;;;4926781;29;20039;-75
2022/02/24 11:12:15;;;;;;;9.55;4.20;;;;;;;;;;4916271;29;20099;-78
2022/02/24 11:14:41;;;;;;;13.30;4.93;;;;;;;;;;4923607;29;20040;-77
2022/02/24 11:17:11;;;;;;;10.38;4.22;;;;;;;;;;4922986;29;20021;-78
2022/02/24 11:19:40;;;;;;;12.40;4.40;;;;;;;;;;4920619;29;20134;-80
2022/02/24 11:22:18;;;;;;;9.48;4.50;;;;;;;;;;4909119;29;20028;-78
2022/02/24 11:24:44;;;;;;;10.30;4.10;;;;;;;;;;4927648;29;20024;-77
2022/02/24 11:27:14;;;;;;;7.40;4.15;;;;;;;;;;4924823;29;20063;-80
2022/02/24 11:29:49;;;;;;;11.02;4.68;;;;;;;;;;4923896;29;20206;-74
2022/02/24 11:32:18;;;;;;;8.93;4.32;;;;;;;;;;4915795;29;20087;-77
2022/02/24 11:34:54;;;;;;;10.27;3.97;;;;;;;;;;4922147;29;20060;-75
2022/02/24 11:37:34;;;;;;;11.30;4.43;;;;;;;;;;4901616;29;20029;-76
2022/02/24 11:40:06;;;;;;;14.05;5.50;;;;;;;;;;4930383;29;20055;-77
2022/02/24 11:42:33;;;;;;;11.63;5.50;;;;;;;;;;4919007;29;20028;-75
2022/02/24 11:45:00;;;;;;;10.57;5.38;;;;;;;;;;4915498;29;20162;-75
2022/02/24 11:47:31;;;;;;;8.27;4.22;;;;;;;;;;4921449;29;20188;-77
2022/02/24 11:49:58;;;;;;;12.75;5.22;;;;;;;;;;4924626;29;20038;-78
2022/02/24 11:52:29;;;;;;;12.63;5.13;;;;;;;;;;4909007;29;20471;-78
2022/02/24 11:54:55;;;;;;;12.80;5.20;;;;;;;;;;4938816;29;20063;-76
2022/02/24 11:57:32;;;;;;;9.93;5.65;;;;;;;;;;4924136;29;20035;-78
2022/02/24 12:00:01;;;;;;;11.90;4.80;;;;;;;;;;4927227;29;20032;-79
2022/02/24 12:02:41;;;;;;;11.63;5.05;;;;;;;;;;4919616;29;20052;-76
2022/02/24 12:05:20;;;;;;;12.25;5.40;;;;;;;;;;4917929;29;20486;-77
2022/02/24 12:08:06;;;;;;;12.43;5.15;;;;;;;;;;4920535;29;20047;-76
2022/02/24 12:10:50;;;;;;;16.70;5.30;;;;;;;;;;4919007;29;20036;-78
2022/02/24 12:13:25;;;;;;;12.85;4.55;;;;;;;;;;4913864;29;20051;-74
2022/02/24 12:16:10;;;;;;;13.80;5.30;;;;;;;;;;4919025;29;20055;-74
2022/02/24 12:18:37;;;;;;;13.13;5.63;;;;;;;;;;4920097;29;20087;-77
2022/02/24 12:21:22;;;;;;;10.35;5.30;;;;;;;;;;4905296;29;20779;-78
2022/02/24 12:23:52;;;;;;;11.77;5.38;;;;;;;;;;4921846;29;20031;-75
2022/02/24 12:26:35;;;;;;;20.67;9.68;;;;;;;;;;4916250;29;20028;-77
2022/02/24 12:29:20;;;;;;;19.00;8.02;;;;;;;;;;4922507;29;20035;-76
2022/02/24 12:31:46;;;;;;;26.98;13.00;;;;;;;;;;4920929;29;20756;-71
2022/02/24 12:34:15;;;;;;;14.63;6.38;;;;;;;;;;4929603;29;20035;-72
2022/02/24 12:36:41;;;;;;;10.50;5.60;;;;;;;;;;4921336;29;20032;-77
2022/02/24 12:39:08;;;;;;;19.58;5.72;;;;;;;;;;4917976;29;20029;-72
2022/02/24 12:41:34;;;;;;;18.38;8.20;;;;;;;;;;4914576;29;20386;-71
2022/02/24 12:44:00;;;;;;;16.35;5.97;;;;;;;;;;4918154;29;20360;-72
2022/02/24 12:46:27;;;;;;;14.05;6.78;;;;;;;;;;4916053;29;20040;-73
2022/02/24 12:48:53;;;;;;;16.65;5.97;;;;;;;;;;4920135;29;20028;-73
2022/02/24 12:51:24;;;;;;;29.02;12.50;;;;;;;;;;4920287;29;20091;-73
2022/02/24 12:53:50;;;;;;;18.40;8.52;;;;;;;;;;4920346;29;20032;-73
2022/02/24 12:56:19;;;;;;;21.42;8.40;;;;;;;;;;4919856;29;20079;-69
2022/02/24 12:58:45;;;;;;;15.43;5.80;;;;;;;;;;4925034;29;20028;-73
2022/02/24 13:01:14;;;;;;;13.45;6.45;;;;;;;;;;4917069;29;20149;-73
2022/02/24 13:03:42;;;;;;;20.77;11.40;;;;;;;;;;4919641;29;20028;-70
2022/02/24 13:06:09;;;;;;;17.77;8.82;;;;;;;;;;4917375;29;20043;-72
2022/02/24 13:11:23;;;;;;;15.70;8.27;;;;;;;;;;4910923;29;20247;-72
2022/02/24 13:13:50;;;;;;;20.42;11.27;;;;;;;;;;4921400;29;20127;-71
2022/02/24 13:16:17;;;;;;;26.02;13.88;;;;;;;;;;4923547;29;20507;-73
2022/02/24 13:18:47;;;;;;;25.17;10.13;;;;;;;;;;4922119;29;20525;-71
2022/02/24 13:21:17;;;;;;;13.35;6.85;;;;;;;;;;4921972;29;20032;-75
2022/02/24 13:23:45;;;;;;;9.85;5.07;;;;;;;;;;4927646;29;20024;-75
2022/02/24 13:26:12;;;;;;;14.57;5.57;;;;;;;;;;4915710;29;20475;-72
2022/02/24 13:28:38;;;;;;;25.90;13.52;;;;;;;;;;4924274;29;20047;-72
2022/02/24 13:31:19;;;;;;;29.10;18.08;;;;;;;;;;4902681;29;20040;-72
2022/02/24 13:33:46;;;;;;;10.40;5.78;;;;;;;;;;4918909;29;20028;-72
2022/02/24 13:36:13;;;;;;;13.07;6.95;;;;;;;;;;4919524;29;20024;-73
2022/02/24 13:38:42;;;;;;;10.27;6.40;;;;;;;;;;4918585;29;20043;-73
2022/02/24 13:41:13;;;;;;;15.27;6.82;;;;;;;;;;4920730;29;20032;-73
2022/02/24 13:43:45;;;;;;;16.85;7.63;;;;;;;;;;4917617;29;20043;-72
2022/02/24 13:46:11;;;;;;;23.38;12.98;;;;;;;;;;4923873;29;20032;-74
2022/02/24 13:48:41;;;;;;;16.85;8.50;;;;;;;;;;4918527;29;20063;-71
2022/02/24 13:51:07;;;;;;;28.33;13.75;;;;;;;;;;4900908;29;20028;-72
2022/02/24 13:53:35;;;;;;;24.95;11.38;;;;;;;;;;4918432;29;20040;-72
2022/02/24 13:56:08;;;;;;;27.77;11.80;;;;;;;;;;4918817;29;20028;-72
2022/02/24 13:58:36;;;;;;;31.33;17.80;;;;;;;;;;4918234;29;20051;-72
2022/02/24 14:01:07;;;;;;;21.48;9.98;;;;;;;;;;4908461;29;20024;-72
2022/02/24 14:03:43;;;;;;;20.98;9.25;;;;;;;;;;4903954;29;20073;-72
2022/02/24 14:06:11;;;;;;;69.55;37.85;;;;;;;;;;4918212;29;20687;-72
2022/02/24 14:08:38;;;;;;;17.85;9.43;;;;;;;;;;4919108;29;20038;-73
2022/02/24 14:11:05;;;;;;;22.10;9.63;;;;;;;;;;4917864;29;20455;-73
2022/02/24 14:13:31;;;;;;;15.02;7.30;;;;;;;;;;4899620;29;20032;-73
2022/02/24 14:15:57;;;;;;;17.33;6.53;;;;;;;;;;4919076;29;20550;-73
2022/02/24 14:18:25;;;;;;;10.77;5.80;;;;;;;;;;4917235;29;20036;-72
2022/02/24 14:20:54;;;;;;;13.35;6.55;;;;;;;;;;4919406;29;20107;-73
2022/02/24 14:23:20;;;;;;;9.38;4.90;;;;;;;;;;4917509;29;20036;-72
2022/02/24 14:25:46;;;;;;;20.60;6.35;;;;;;;;;;4918359;29;20079;-73
2022/02/24 14:28:12;;;;;;;12.43;6.05;;;;;;;;;;4918629;29;20139;-73
2022/02/24 14:30:38;;;;;;;9.57;5.50;;;;;;;;;;4918597;29;20036;-73
2022/02/24 14:33:05;;;;;;;10.63;4.47;;;;;;;;;;4900865;29;20036;-72
2022/02/24 14:35:33;;;;;;;15.10;5.68;;;;;;;;;;4919602;29;20024;-72
2022/02/24 14:37:59;;;;;;;12.40;5.07;;;;;;;;;;4917601;29;20155;-73
2022/02/24 14:40:28;;;;;;;12.75;4.47;;;;;;;;;;4902387;29;20095;-74
2022/02/24 14:42:54;;;;;;;11.18;4.50;;;;;;;;;;4900824;29;20032;-73
2022/02/24 14:45:34;;;;;;;12.60;4.63;;;;;;;;;;4922496;29;20099;-74
2022/02/24 14:48:00;;;;;;;11.43;4.63;;;;;;;;;;4903092;29;20491;-76
2022/02/24 14:50:29;;;;;;;11.43;6.00;;;;;;;;;;4905452;29;20132;-78
2022/02/24 14:53:00;;;;;;;19.27;6.38;;;;;;;;;;4938053;29;20087;-75
2022/02/24 14:55:27;;;;;;;11.07;6.05;;;;;;;;;;4910134;29;20032;-75
2022/02/24 14:57:54;;;;;;;13.27;6.30;;;;;;;;;;4917821;29;20479;-71
2022/02/24 15:00:20;;;;;;;9.05;4.95;;;;;;;;;;4904412;29;20036;-71
2022/02/24 15:02:56;;;;;;;11.35;5.45;;;;;;;;;;4918405;29;20026;-72
2022/02/24 15:05:30;;;;;;;11.48;5.70;;;;;;;;;;4903915;29;20048;-72
2022/02/24 15:07:57;;;;;;;13.05;5.97;;;;;;;;;;4904793;29;20048;-74
2022/02/24 15:10:24;;;;;;;19.42;7.40;;;;;;;;;;4917674;29;20463;-72
2022/02/24 15:12:50;;;;;;;12.30;4.72;;;;;;;;;;4904691;29;20128;-73
2022/02/24 15:15:17;;;;;;;11.15;5.05;;;;;;;;;;4924400;29;20052;-75
2022/02/24 15:17:44;;;;;;;10.07;4.97;;;;;;;;;;4924330;29;20138;-76
2022/02/24 15:20:12;;;;;;;11.38;4.80;;;;;;;;;;4895298;29;20055;-75
2022/02/24 15:22:42;;;;;;;10.88;4.93;;;;;;;;;;4917909;29;20047;-75
2022/02/24 15:25:14;;;;;;;10.93;5.53;;;;;;;;;;4912494;29;20024;-77
2022/02/24 15:27:41;;;;;;;12.23;5.15;;;;;;;;;;4931779;29;20059;-76
2022/02/24 15:30:08;;;;;;;13.85;6.43;;;;;;;;;;4928341;29;20031;-72
2022/02/24 15:32:34;;;;;;;13.35;6.75;;;;;;;;;;4916715;29;20054;-73
2022/02/24 15:35:00;;;;;;;14.48;6.55;;;;;;;;;;4904024;29;20386;-72
2022/02/24 15:37:26;;;;;;;12.57;5.90;;;;;;;;;;4900185;29;20036;-74
2022/02/24 15:39:53;;;;;;;11.95;5.45;;;;;;;;;;4920385;29;20032;-75
2022/02/24 15:42:20;;;;;;;23.65;8.70;;;;;;;;;;4926271;29;20039;-72
2022/02/24 15:44:56;;;;;;;11.75;5.80;;;;;;;;;;4918297;29;20040;-72
2022/02/24 15:47:23;;;;;;;17.33;8.30;;;;;;;;;;4917360;29;20032;-73
2022/02/24 15:49:52;;;;;;;17.83;8.98;;;;;;;;;;4910780;29;20028;-75
2022/02/24 15:52:18;;;;;;;14.88;7.40;;;;;;;;;;4903765;29;20077;-76
2022/02/24 15:54:48;;;;;;;21.27;10.60;;;;;;;;;;4894214;29;20029;-76
2022/02/24 15:57:34;;;;;;;19.10;7.93;;;;;;;;;;4937124;29;20038;-77
2022/02/24 16:00:19;;;;;;;16.05;6.97;;;;;;;;;;4942053;29;20024;-75
2022/02/24 16:02:45;;;;;;;13.70;7.15;;;;;;;;;;4910851;29;20064;-74
2022/02/24 16:05:11;;;;;;;15.20;7.13;;;;;;;;;;4934015;29;20039;-73
2022/02/24 16:07:37;;;;;;;15.68;7.45;;;;;;;;;;4933121;29;20048;-73
2022/02/24 16:10:04;;;;;;;18.77;7.75;;;;;;;;;;4932901;29;20051;-73
2022/02/24 16:12:31;;;;;;;18.25;7.32;;;;;;;;;;4932705;29;20498;-72
2022/02/24 16:15:02;;;;;;;14.52;6.50;;;;;;;;;;4932504;29;20485;-72
2022/02/24 16:17:28;;;;;;;11.90;6.47;;;;;;;;;;4930912;29;20053;-73
2022/02/24 16:19:54;;;;;;;13.23;6.28;;;;;;;;;;4932970;29;20389;-71
2022/02/24 16:22:20;;;;;;;16.67;6.65;;;;;;;;;;4935059;28;20039;-73
2022/02/24 16:24:46;;;;;;;15.02;7.63;;;;;;;;;;4916406;29;20845;-71
2022/02/24 16:27:13;;;;;;;13.10;8.32;;;;;;;;;;4935577;29;20078;-71
2022/02/24 16:29:39;;;;;;;15.60;8.13;;;;;;;;;;4897269;29;20032;-70
2022/02/24 16:32:05;;;;;;;18.98;8.52;;;;;;;;;;4896151;29;20056;-74
2022/02/24 16:34:31;;;;;;;22.45;8.27;;;;;;;;;;4897376;29;20029;-72
2022/02/24 16:37:02;;;;;;;15.52;8.60;;;;;;;;;;4896750;29;20029;-72
2022/02/24 16:39:33;;;;;;;20.63;9.57;;;;;;;;;;4896614;29;20036;-72
2022/02/24 16:42:03;;;;;;;26.70;14.73;;;;;;;;;;4897061;29;20040;-78
2022/02/24 16:44:30;;;;;;;28.58;14.95;;;;;;;;;;4902258;29;20486;-74
2022/02/24 16:46:56;;;;;;;24.17;12.15;;;;;;;;;;4896897;29;20440;-74
2022/02/24 16:49:25;;;;;;;32.22;15.05;;;;;;;;;;4911575;29;20041;-75
2022/02/24 16:51:51;;;;;;;27.08;13.85;;;;;;;;;;4904291;29;20534;-74
2022/02/24 16:54:17;;;;;;;21.92;10.95;;;;;;;;;;4906994;29;20060;-74
2022/02/24 16:56:44;;;;;;;22.83;10.20;;;;;;;;;;4916026;29;20032;-74
2022/02/24 16:59:10;;;;;;;19.10;9.13;;;;;;;;;;4916091;29;20032;-75
2022/02/24 17:01:36;;;;;;;18.90;8.55;;;;;;;;;;4897845;29;20059;-74
2022/02/24 17:04:02;;;;;;;17.13;8.98;;;;;;;;;;4896389;29;20051;-75
2022/02/24 17:06:28;;;;;;;15.98;8.57;;;;;;;;;;4914185;29;20385;-75
2022/02/24 17:08:54;;;;;;;15.63;8.90;;;;;;;;;;4898921;29;20092;-73
2022/02/24 17:11:20;;;;;;;20.05;8.95;;;;;;;;;;4913784;29;20502;-75
2022/02/24 17:13:47;;;;;;;19.88;9.13;;;;;;;;;;4914259;29;20032;-76
2022/02/24 17:16:16;;;;;;;21.27;9.70;;;;;;;;;;4901668;29;20037;-76
2022/02/24 17:18:43;;;;;;;18.77;10.80;;;;;;;;;;4917432;29;20035;-76
2022/02/24 17:21:16;;;;;;;21.83;12.13;;;;;;;;;;4907589;29;20055;-78
2022/02/24 17:23:46;;;;;;;22.05;11.20;;;;;;;;;;4923637;29;20036;-76
2022/02/24 17:26:14;;;;;;;21.48;10.93;;;;;;;;;;4909017;29;20044;-78
2022/02/24 17:28:42;;;;;;;24.27;11.27;;;;;;;;;;4915515;29;20190;-73
2022/02/24 17:31:11;;;;;;;21.42;12.70;;;;;;;;;;4916034;29;20474;-74
2022/02/24 17:33:39;;;;;;;20.45;10.73;;;;;;;;;;4918623;29;20134;-77
2022/02/24 17:36:05;;;;;;;23.17;10.43;;;;;;;;;;4920856;29;20024;-76
2022/02/24 17:38:32;;;;;;;23.80;12.30;;;180.10;1740.80;;;;;;4921214;29;20032;-76
2022/02/24 17:41:00;;;;;;;24.08;10.35;;;179.90;1766.40;;;;;;4920099;29;20079;-72
2022/02/24 17:43:30;;;;;;;20.90;10.60;;;;;;;;;;4916948;29;20036;-71
2022/02/24 17:45:56;;;;;;;21.85;10.63;;;;;;;;;;4917099;29;20111;-72
2022/02/24 17:48:23;;;;;;;20.35;10.00;;;;;;;;;;4918487;29;20036;-72
2022/02/24 17:50:50;;;;;;;25.27;10.07;;;;;;;;;;4918955;29;20032;-72
2022/02/24 17:53:17;;;;;;;19.98;10.02;;;;;;;;;;4918834;29;20036;-75
2022/02/24 17:55:43;;;;;;;19.27;10.10;;;;;;;;;;4919922;29;20457;-75
2022/02/24 17:58:09;;;;;;;20.10;9.60;;;;;;;;;;4920338;29;20056;-75
2022/02/24 18:00:40;;;;;;;21.25;10.05;;;;;;;;;;4905426;29;20055;-77
2022/02/24 18:03:06;;;;;;;22.02;10.48;;;;;;;;;;4919923;29;20529;-74
2022/02/24 18:05:33;;;;;;;17.60;9.55;;;;;;;;;;4919474;29;20056;-73
2022/02/24 18:07:59;;;;;;;22.20;9.57;;;;;;;;;;4915694;29;20487;-74
2022/02/24 18:10:27;;;;;;;21.55;10.40;;;;;;;;;;4909644;29;20040;-79
2022/02/24 18:12:57;;;;;;;20.63;9.98;;;;;;;;;;4919375;29;20123;-74
2022/02/24 18:15:23;;;;;;;23.50;10.20;;;;;;;;;;4917628;29;20027;-72
2022/02/24 18:17:50;;;;;;;19.45;11.05;;;;;;;;;;4918943;29;20040;-73
2022/02/24 18:20:16;;;;;;;22.83;10.48;;;;;;;;;;4914399;29;20398;-71
2022/02/24 18:22:43;;;;;;;19.70;10.50;;;;;;;;;;4919072;29;20028;-75
2022/02/24 18:25:10;;;;;;;20.52;9.45;;;;;;;;;;4920853;29;20083;-75
2022/02/24 18:27:39;;;;;;;21.30;9.82;;;;;;;;;;4917891;29;20048;-71
2022/02/24 18:30:07;;;;;;;14.48;9.02;;;;;;;;;;4916637;29;20020;-71
2022/02/24 18:32:35;;;;;;;18.20;9.90;;;;;;;;;;4899882;29;20111;-72
2022/02/24 18:35:03;;;;;;;18.80;9.95;;;;;;;;;;4915856;29;20092;-72
2022/02/24 18:37:29;;;;;;;17.58;8.95;;;;;;;;;;4901262;29;20032;-71
2022/02/24 18:39:55;;;;;;;21.80;9.48;;;;;;;;;;4917869;29;20036;-72
2022/02/24 18:42:22;;;;;;;22.52;13.18;;;;;;;;;;4918050;29;20051;-71
2022/02/24 18:44:49;;;;;;;19.77;9.57;;;;;;;;;;4899260;29;20036;-72
2022/02/24 18:47:17;;;;;;;19.92;9.75;;;;;;;;;;4916495;29;20056;-72
2022/02/24 18:49:43;;;;;;;20.52;9.70;;;;;;;;;;4916138;29;20039;-72
2022/02/24 18:52:10;;;;;;;17.65;8.82;;;;;;;;;;4911353;29;20087;-72
2022/02/24 18:54:36;;;;;;;19.15;9.13;;;;;;;;;;4914586;29;20094;-71
2022/02/24 18:57:02;;;;;;;16.08;9.55;;;;;;;;;;4914605;29;20028;-71
2022/02/24 18:59:29;;;;;;;21.17;9.07;;;;;;;;;;4917176;29;20103;-71
2022/02/24 19:01:58;;;;;;;17.33;9.20;;;;;;;;;;4915665;29;20403;-71
2022/02/24 19:04:24;;;;;;;20.30;8.93;;;;;;;;;;4902899;29;20513;-71
2022/02/24 19:06:52;;;;;;;17.88;8.55;;;;;;;;;;4916514;29;20040;-71
2022/02/24 19:09:22;;;;;;;20.13;9.60;;;;;;;;;;4913351;29;20147;-72
2022/02/24 19:11:48;;;;;;;18.35;8.73;;;;;;;;;;4916545;29;20024;-70
2022/02/24 19:14:15;;;;;;;17.85;8.93;;;;;;;;;;4917251;29;20036;-70
2022/02/24 19:16:42;;;;;;;17.52;8.70;;;;;;;;;;4899805;29;20079;-71
2022/02/24 19:19:11;;;;;;;18.02;9.15;;;;;;;;;;4917108;29;20490;-71
2022/02/24 19:21:38;;;;;;;18.33;8.95;;;;;;;;;;4914276;29;20073;-70
2022/02/24 19:24:09;;;;;;;16.48;8.52;;;;;;;;;;4916431;29;20344;-73
2022/02/24 19:26:36;;;;;;;18.60;8.05;;;;;;;;;;4917186;29;20036;-73
2022/02/24 19:29:02;;;;;;;16.13;8.30;;;;;;;;;;4910926;29;20391;-74
2022/02/24 19:31:28;;;;;;;17.70;8.20;;;154.10;2252.80;;;;;;4916870;29;20106;-74
2022/02/24 19:33:57;;;;;;;17.08;8.38;;;154.00;2252.80;;;;;;4899925;29;20486;-71
2022/02/24 19:36:32;;;;;;;14.27;7.97;;;;;;;;;;4916774;29;20028;-75
2022/02/24 19:38:58;;;;;;;14.40;7.72;;;;;;;;;;4915183;29;20120;-74
2022/02/24 19:41:24;;;;;;;13.25;7.93;;;;;;;;;;4916463;29;20028;-74
2022/02/24 19:43:50;;;;;;;14.55;7.55;;;;;;;;;;4916992;29;20059;-75
2022/02/24 19:46:18;;;;;;;16.10;8.73;;;;;;;;;;4898032;29;20033;-72
2022/02/24 19:48:46;;;;;;;15.18;8.07;;;;;;;;;;4916401;29;20067;-73